sensor_id;sensor_type;location;lat;lon;timestamp;P1;durP1;ratioP1;P2;durP2;ratioP2
26963;SDS011;14521;48.148;-1.656;2023-05-07T00:02:38;1.63;;;0.77;;
26963;SDS011;14521;48.148;-1.656;2023-05-07T00:06:00;2.40;;;0.90;;
26963;SDS011;14521;48.148;-1.656;2023-05-07T00:09:23;3.00;;;0.93;;
26963;SDS011;14521;48.148;-1.656;2023-05-07T00:12:45;1.63;;;0.90;;
26963;SDS011;14521;48.148;-1.656;2023-05-07T00:16:08;2.03;;;0.80;;
26963;SDS011;14521;48.148;-1.656;2023-05-07T00:19:30;1.08;;;0.75;;
26963;SDS011;14521;48.148;-1.656;2023-05-07T00:22:53;3.00;;;0.70;;
26963;SDS011;14521;48.148;-1.656;2023-05-07T00:26:15;3.58;;;0.93;;
26963;SDS011;14521;48.148;-1.656;2023-05-07T00:29:39;1.65;;;0.70;;
26963;SDS011;14521;48.148;-1.656;2023-05-07T00:33:01;1.02;;;0.70;;
26963;SDS011;14521;48.148;-1.656;2023-05-07T00:36:23;1.52;;;0.80;;
26963;SDS011;14521;48.148;-1.656;2023-05-07T00:39:47;1.15;;;0.98;;
26963;SDS011;14521;48.148;-1.656;2023-05-07T00:43:10;1.58;;;0.70;;
26963;SDS011;14521;48.148;-1.656;2023-05-07T00:46:32;1.25;;;0.85;;
26963;SDS011;14521;48.148;-1.656;2023-05-07T00:49:55;4.20;;;1.17;;
26963;SDS011;14521;48.148;-1.656;2023-05-07T00:53:19;4.63;;;1.42;;
26963;SDS011;14521;48.148;-1.656;2023-05-07T00:56:42;2.85;;;1.08;;
26963;SDS011;14521;48.148;-1.656;2023-05-07T01:00:04;5.25;;;1.00;;
26963;SDS011;14521;48.148;-1.656;2023-05-07T01:03:30;2.63;;;1.02;;
26963;SDS011;14521;48.148;-1.656;2023-05-07T01:06:54;2.85;;;1.15;;
26963;SDS011;14521;48.148;-1.656;2023-05-07T01:10:18;1.85;;;0.85;;
26963;SDS011;14521;48.148;-1.656;2023-05-07T01:13:42;1.60;;;0.95;;
26963;SDS011;14521;48.148;-1.656;2023-05-07T01:17:05;2.75;;;0.93;;
26963;SDS011;14521;48.148;-1.656;2023-05-07T01:20:29;2.53;;;1.10;;
26963;SDS011;14521;48.148;-1.656;2023-05-07T01:23:53;1.83;;;1.15;;
26963;SDS011;14521;48.148;-1.656;2023-05-07T01:27:17;2.03;;;1.30;;
26963;SDS011;14521;48.148;-1.656;2023-05-07T01:30:41;3.63;;;0.70;;
26963;SDS011;14521;48.148;-1.656;2023-05-07T01:34:07;2.88;;;1.00;;
26963;SDS011;14521;48.148;-1.656;2023-05-07T01:37:31;7.43;;;0.90;;
26963;SDS011;14521;48.148;-1.656;2023-05-07T01:40:54;2.85;;;0.90;;
26963;SDS011;14521;48.148;-1.656;2023-05-07T01:44:17;1.85;;;1.13;;
26963;SDS011;14521;48.148;-1.656;2023-05-07T01:47:40;0.85;;;0.60;;
26963;SDS011;14521;48.148;-1.656;2023-05-07T01:51:04;2.08;;;0.98;;
26963;SDS011;14521;48.148;-1.656;2023-05-07T01:54:27;2.72;;;0.85;;
26963;SDS011;14521;48.148;-1.656;2023-05-07T01:57:51;1.42;;;0.82;;
26963;SDS011;14521;48.148;-1.656;2023-05-07T02:01:13;1.38;;;0.90;;
26963;SDS011;14521;48.148;-1.656;2023-05-07T02:04:37;2.13;;;1.00;;
26963;SDS011;14521;48.148;-1.656;2023-05-07T02:08:00;2.15;;;0.98;;
26963;SDS011;14521;48.148;-1.656;2023-05-07T02:11:24;2.22;;;0.98;;
26963;SDS011;14521;48.148;-1.656;2023-05-07T02:14:46;2.05;;;1.00;;
26963;SDS011;14521;48.148;-1.656;2023-05-07T02:18:09;2.05;;;1.33;;
26963;SDS011;14521;48.148;-1.656;2023-05-07T02:21:32;2.25;;;0.82;;
26963;SDS011;14521;48.148;-1.656;2023-05-07T02:24:54;1.17;;;0.80;;
26963;SDS011;14521;48.148;-1.656;2023-05-07T02:28:16;1.50;;;0.80;;
26963;SDS011;14521;48.148;-1.656;2023-05-07T02:31:49;1.05;;;0.80;;
26963;SDS011;14521;48.148;-1.656;2023-05-07T02:35:12;2.88;;;0.98;;
26963;SDS011;14521;48.148;-1.656;2023-05-07T02:38:35;2.70;;;0.98;;
26963;SDS011;14521;48.148;-1.656;2023-05-07T02:41:58;2.40;;;0.80;;
26963;SDS011;14521;48.148;-1.656;2023-05-07T02:45:20;1.38;;;0.73;;
26963;SDS011;14521;48.148;-1.656;2023-05-07T02:48:44;1.93;;;0.90;;
26963;SDS011;14521;48.148;-1.656;2023-05-07T02:52:07;2.83;;;1.10;;
26963;SDS011;14521;48.148;-1.656;2023-05-07T02:55:30;1.15;;;0.80;;
26963;SDS011;14521;48.148;-1.656;2023-05-07T02:58:52;2.47;;;1.05;;
26963;SDS011;14521;48.148;-1.656;2023-05-07T03:02:17;1.75;;;1.27;;
26963;SDS011;14521;48.148;-1.656;2023-05-07T03:05:40;2.75;;;1.13;;
26963;SDS011;14521;48.148;-1.656;2023-05-07T03:09:02;2.50;;;1.30;;
26963;SDS011;14521;48.148;-1.656;2023-05-07T03:12:25;2.90;;;0.90;;
26963;SDS011;14521;48.148;-1.656;2023-05-07T03:15:47;1.55;;;1.20;;
26963;SDS011;14521;48.148;-1.656;2023-05-07T03:19:09;1.00;;;0.90;;
26963;SDS011;14521;48.148;-1.656;2023-05-07T03:22:32;1.80;;;0.90;;
26963;SDS011;14521;48.148;-1.656;2023-05-07T03:25:54;2.15;;;1.15;;
26963;SDS011;14521;48.148;-1.656;2023-05-07T03:29:17;2.70;;;0.80;;
26963;SDS011;14521;48.148;-1.656;2023-05-07T03:32:39;1.95;;;1.25;;
26963;SDS011;14521;48.148;-1.656;2023-05-07T03:36:05;1.60;;;0.80;;
26963;SDS011;14521;48.148;-1.656;2023-05-07T03:39:27;2.22;;;0.80;;
26963;SDS011;14521;48.148;-1.656;2023-05-07T03:42:50;1.60;;;0.95;;
26963;SDS011;14521;48.148;-1.656;2023-05-07T03:46:15;4.32;;;0.85;;
26963;SDS011;14521;48.148;-1.656;2023-05-07T03:49:38;2.88;;;0.80;;
26963;SDS011;14521;48.148;-1.656;2023-05-07T03:53:01;1.70;;;0.88;;
26963;SDS011;14521;48.148;-1.656;2023-05-07T03:56:25;1.55;;;1.10;;
26963;SDS011;14521;48.148;-1.656;2023-05-07T03:59:51;1.23;;;0.98;;
26963;SDS011;14521;48.148;-1.656;2023-05-07T04:03:13;2.08;;;0.82;;
26963;SDS011;14521;48.148;-1.656;2023-05-07T04:06:36;3.05;;;0.80;;
26963;SDS011;14521;48.148;-1.656;2023-05-07T04:09:59;1.40;;;0.90;;
26963;SDS011;14521;48.148;-1.656;2023-05-07T04:13:21;2.30;;;0.80;;
26963;SDS011;14521;48.148;-1.656;2023-05-07T04:16:45;1.10;;;0.88;;
26963;SDS011;14521;48.148;-1.656;2023-05-07T04:20:09;1.40;;;0.60;;
26963;SDS011;14521;48.148;-1.656;2023-05-07T04:23:33;2.33;;;1.05;;
26963;SDS011;14521;48.148;-1.656;2023-05-07T04:26:58;1.27;;;0.98;;
26963;SDS011;14521;48.148;-1.656;2023-05-07T04:30:21;1.15;;;0.88;;
26963;SDS011;14521;48.148;-1.656;2023-05-07T04:33:43;1.52;;;0.65;;
26963;SDS011;14521;48.148;-1.656;2023-05-07T04:37:08;2.00;;;1.20;;
26963;SDS011;14521;48.148;-1.656;2023-05-07T04:40:32;1.23;;;0.93;;
26963;SDS011;14521;48.148;-1.656;2023-05-07T04:43:57;1.50;;;1.02;;
26963;SDS011;14521;48.148;-1.656;2023-05-07T04:47:23;1.67;;;1.00;;
26963;SDS011;14521;48.148;-1.656;2023-05-07T04:50:47;3.63;;;1.42;;
26963;SDS011;14521;48.148;-1.656;2023-05-07T04:54:11;1.98;;;0.88;;
26963;SDS011;14521;48.148;-1.656;2023-05-07T04:57:33;2.17;;;1.33;;
26963;SDS011;14521;48.148;-1.656;2023-05-07T05:00:56;1.58;;;0.60;;
26963;SDS011;14521;48.148;-1.656;2023-05-07T05:04:19;1.92;;;0.93;;
26963;SDS011;14521;48.148;-1.656;2023-05-07T05:07:42;1.02;;;0.93;;
26963;SDS011;14521;48.148;-1.656;2023-05-07T05:11:04;1.35;;;0.70;;
26963;SDS011;14521;48.148;-1.656;2023-05-07T05:14:29;2.03;;;0.80;;
26963;SDS011;14521;48.148;-1.656;2023-05-07T05:17:51;4.18;;;0.98;;
26963;SDS011;14521;48.148;-1.656;2023-05-07T05:21:14;1.80;;;0.80;;
26963;SDS011;14521;48.148;-1.656;2023-05-07T05:24:38;1.17;;;0.50;;
26963;SDS011;14521;48.148;-1.656;2023-05-07T05:28:00;3.70;;;0.70;;
26963;SDS011;14521;48.148;-1.656;2023-05-07T05:31:24;3.30;;;0.77;;
26963;SDS011;14521;48.148;-1.656;2023-05-07T05:34:47;1.90;;;0.80;;
26963;SDS011;14521;48.148;-1.656;2023-05-07T05:38:10;1.98;;;1.00;;
26963;SDS011;14521;48.148;-1.656;2023-05-07T05:41:33;2.58;;;0.80;;
26963;SDS011;14521;48.148;-1.656;2023-05-07T05:44:57;1.15;;;0.77;;
26963;SDS011;14521;48.148;-1.656;2023-05-07T05:48:20;1.75;;;0.90;;
26963;SDS011;14521;48.148;-1.656;2023-05-07T05:51:43;1.00;;;0.80;;
26963;SDS011;14521;48.148;-1.656;2023-05-07T05:55:07;3.30;;;0.82;;
26963;SDS011;14521;48.148;-1.656;2023-05-07T05:58:31;1.33;;;0.60;;
26963;SDS011;14521;48.148;-1.656;2023-05-07T06:01:56;1.42;;;0.80;;
26963;SDS011;14521;48.148;-1.656;2023-05-07T06:05:19;1.50;;;0.95;;
26963;SDS011;14521;48.148;-1.656;2023-05-07T06:08:45;1.15;;;0.80;;
26963;SDS011;14521;48.148;-1.656;2023-05-07T06:12:12;1.23;;;0.75;;
26963;SDS011;14521;48.148;-1.656;2023-05-07T06:15:35;1.80;;;1.10;;
26963;SDS011;14521;48.148;-1.656;2023-05-07T06:19:03;1.85;;;0.68;;
26963;SDS011;14521;48.148;-1.656;2023-05-07T06:22:25;2.45;;;0.70;;
26963;SDS011;14521;48.148;-1.656;2023-05-07T06:25:49;1.88;;;0.80;;
26963;SDS011;14521;48.148;-1.656;2023-05-07T06:29:14;2.85;;;0.93;;
26963;SDS011;14521;48.148;-1.656;2023-05-07T06:32:37;2.00;;;0.98;;
26963;SDS011;14521;48.148;-1.656;2023-05-07T06:36:02;1.85;;;0.82;;
26963;SDS011;14521;48.148;-1.656;2023-05-07T06:39:26;1.02;;;0.80;;
26963;SDS011;14521;48.148;-1.656;2023-05-07T06:42:48;0.75;;;0.70;;
26963;SDS011;14521;48.148;-1.656;2023-05-07T06:46:29;1.50;;;0.90;;
26963;SDS011;14521;48.148;-1.656;2023-05-07T06:49:51;1.48;;;0.80;;
26963;SDS011;14521;48.148;-1.656;2023-05-07T06:53:17;0.85;;;0.68;;
26963;SDS011;14521;48.148;-1.656;2023-05-07T06:56:40;0.82;;;0.60;;
26963;SDS011;14521;48.148;-1.656;2023-05-07T07:00:03;1.23;;;0.75;;
26963;SDS011;14521;48.148;-1.656;2023-05-07T07:03:35;2.22;;;0.70;;
26963;SDS011;14521;48.148;-1.656;2023-05-07T07:06:58;1.33;;;0.70;;
26963;SDS011;14521;48.148;-1.656;2023-05-07T07:10:22;1.77;;;0.73;;
26963;SDS011;14521;48.148;-1.656;2023-05-07T07:13:46;1.50;;;1.00;;
26963;SDS011;14521;48.148;-1.656;2023-05-07T07:17:08;1.77;;;0.80;;
26963;SDS011;14521;48.148;-1.656;2023-05-07T07:20:31;1.70;;;0.60;;
26963;SDS011;14521;48.148;-1.656;2023-05-07T07:23:54;0.70;;;0.60;;
26963;SDS011;14521;48.148;-1.656;2023-05-07T07:27:16;2.05;;;0.95;;
26963;SDS011;14521;48.148;-1.656;2023-05-07T07:30:39;4.35;;;0.70;;
26963;SDS011;14521;48.148;-1.656;2023-05-07T07:34:01;0.80;;;0.75;;
26963;SDS011;14521;48.148;-1.656;2023-05-07T07:37:24;3.80;;;0.80;;
26963;SDS011;14521;48.148;-1.656;2023-05-07T07:40:47;0.80;;;0.70;;
26963;SDS011;14521;48.148;-1.656;2023-05-07T07:44:10;3.65;;;0.77;;
26963;SDS011;14521;48.148;-1.656;2023-05-07T07:47:39;3.25;;;1.00;;
26963;SDS011;14521;48.148;-1.656;2023-05-07T07:51:02;2.33;;;1.25;;
26963;SDS011;14521;48.148;-1.656;2023-05-07T07:54:25;4.35;;;1.13;;
26963;SDS011;14521;48.148;-1.656;2023-05-07T07:57:48;2.30;;;0.80;;
26963;SDS011;14521;48.148;-1.656;2023-05-07T08:01:12;3.40;;;1.45;;
26963;SDS011;14521;48.148;-1.656;2023-05-07T08:04:36;1.38;;;1.02;;
26963;SDS011;14521;48.148;-1.656;2023-05-07T08:08:01;3.75;;;1.08;;
26963;SDS011;14521;48.148;-1.656;2023-05-07T08:11:27;1.10;;;0.95;;
26963;SDS011;14521;48.148;-1.656;2023-05-07T08:14:50;4.82;;;1.05;;
26963;SDS011;14521;48.148;-1.656;2023-05-07T08:18:13;1.80;;;1.05;;
26963;SDS011;14521;48.148;-1.656;2023-05-07T08:21:38;1.20;;;1.10;;
26963;SDS011;14521;48.148;-1.656;2023-05-07T08:25:02;2.45;;;1.02;;
26963;SDS011;14521;48.148;-1.656;2023-05-07T08:28:26;4.00;;;1.10;;
26963;SDS011;14521;48.148;-1.656;2023-05-07T08:31:48;3.08;;;1.15;;
26963;SDS011;14521;48.148;-1.656;2023-05-07T08:35:11;1.30;;;1.17;;
26963;SDS011;14521;48.148;-1.656;2023-05-07T08:38:33;4.43;;;0.90;;
26963;SDS011;14521;48.148;-1.656;2023-05-07T08:41:56;1.00;;;1.00;;
26963;SDS011;14521;48.148;-1.656;2023-05-07T08:45:24;8.68;;;1.10;;
26963;SDS011;14521;48.148;-1.656;2023-05-07T08:48:49;2.47;;;1.15;;
26963;SDS011;14521;48.148;-1.656;2023-05-07T08:52:13;1.63;;;1.10;;
26963;SDS011;14521;48.148;-1.656;2023-05-07T08:55:36;1.98;;;1.10;;
26963;SDS011;14521;48.148;-1.656;2023-05-07T08:58:58;2.67;;;1.10;;
26963;SDS011;14521;48.148;-1.656;2023-05-07T09:02:23;1.15;;;1.05;;
26963;SDS011;14521;48.148;-1.656;2023-05-07T09:05:46;1.48;;;1.20;;
26963;SDS011;14521;48.148;-1.656;2023-05-07T09:12:36;1.48;;;1.38;;
26963;SDS011;14521;48.148;-1.656;2023-05-07T09:16:09;1.92;;;1.02;;
26963;SDS011;14521;48.148;-1.656;2023-05-07T09:19:35;1.33;;;1.00;;
26963;SDS011;14521;48.148;-1.656;2023-05-07T09:22:59;1.67;;;1.50;;
26963;SDS011;14521;48.148;-1.656;2023-05-07T09:26:23;0.80;;;0.80;;
26963;SDS011;14521;48.148;-1.656;2023-05-07T09:29:46;3.15;;;0.98;;
26963;SDS011;14521;48.148;-1.656;2023-05-07T09:33:10;2.22;;;0.75;;
26963;SDS011;14521;48.148;-1.656;2023-05-07T09:36:36;3.05;;;1.00;;
26963;SDS011;14521;48.148;-1.656;2023-05-07T09:39:58;1.17;;;0.70;;
26963;SDS011;14521;48.148;-1.656;2023-05-07T09:43:23;1.20;;;1.10;;
26963;SDS011;14521;48.148;-1.656;2023-05-07T09:46:53;1.48;;;1.30;;
26963;SDS011;14521;48.148;-1.656;2023-05-07T09:50:36;1.00;;;1.00;;
26963;SDS011;14521;48.148;-1.656;2023-05-07T09:54:11;1.07;;;1.00;;
26963;SDS011;14521;48.148;-1.656;2023-05-07T09:57:36;0.77;;;0.77;;
26963;SDS011;14521;48.148;-1.656;2023-05-07T10:01:02;1.00;;;0.90;;
26963;SDS011;14521;48.148;-1.656;2023-05-07T10:04:25;1.63;;;0.85;;
26963;SDS011;14521;48.148;-1.656;2023-05-07T10:07:48;0.80;;;0.80;;
26963;SDS011;14521;48.148;-1.656;2023-05-07T10:11:12;0.77;;;0.77;;
26963;SDS011;14521;48.148;-1.656;2023-05-07T10:14:37;1.10;;;1.00;;
26963;SDS011;14521;48.148;-1.656;2023-05-07T10:18:00;1.55;;;0.80;;
26963;SDS011;14521;48.148;-1.656;2023-05-07T10:21:26;3.03;;;0.80;;
26963;SDS011;14521;48.148;-1.656;2023-05-07T10:24:54;2.83;;;0.85;;
26963;SDS011;14521;48.148;-1.656;2023-05-07T10:28:21;1.40;;;1.10;;
26963;SDS011;14521;48.148;-1.656;2023-05-07T10:31:54;2.08;;;0.90;;
26963;SDS011;14521;48.148;-1.656;2023-05-07T10:35:27;4.95;;;1.10;;
26963;SDS011;14521;48.148;-1.656;2023-05-07T10:38:56;2.55;;;1.80;;
26963;SDS011;14521;48.148;-1.656;2023-05-07T10:42:19;4.43;;;0.90;;
26963;SDS011;14521;48.148;-1.656;2023-05-07T10:56:46;1.50;;;1.30;;
26963;SDS011;14521;48.148;-1.656;2023-05-07T11:04:15;5.20;;;2.22;;
26963;SDS011;14521;48.148;-1.656;2023-05-07T11:07:54;3.33;;;3.08;;
26963;SDS011;14521;48.148;-1.656;2023-05-07T11:11:44;5.18;;;3.78;;
26963;SDS011;14521;48.148;-1.656;2023-05-07T11:15:37;11.05;;;5.70;;
26963;SDS011;14521;48.148;-1.656;2023-05-07T11:19:09;10.90;;;7.40;;
26963;SDS011;14521;48.148;-1.656;2023-05-07T11:22:37;22.13;;;9.82;;
26963;SDS011;14521;48.148;-1.656;2023-05-07T11:26:24;12.40;;;9.90;;
26963;SDS011;14521;48.148;-1.656;2023-05-07T11:29:47;19.25;;;11.05;;
26963;SDS011;14521;48.148;-1.656;2023-05-07T11:33:10;14.40;;;10.20;;
26963;SDS011;14521;48.148;-1.656;2023-05-07T11:36:34;14.35;;;10.93;;
26963;SDS011;14521;48.148;-1.656;2023-05-07T11:40:06;17.42;;;11.75;;
26963;SDS011;14521;48.148;-1.656;2023-05-07T11:43:33;20.48;;;12.80;;
26963;SDS011;14521;48.148;-1.656;2023-05-07T11:46:57;11.40;;;8.27;;
26963;SDS011;14521;48.148;-1.656;2023-05-07T11:50:21;11.60;;;8.25;;
26963;SDS011;14521;48.148;-1.656;2023-05-07T11:53:43;14.73;;;8.32;;
26963;SDS011;14521;48.148;-1.656;2023-05-07T11:57:06;12.75;;;7.75;;
26963;SDS011;14521;48.148;-1.656;2023-05-07T12:00:36;10.90;;;7.28;;
26963;SDS011;14521;48.148;-1.656;2023-05-07T12:03:58;10.50;;;7.00;;
26963;SDS011;14521;48.148;-1.656;2023-05-07T12:07:25;14.40;;;7.78;;
26963;SDS011;14521;48.148;-1.656;2023-05-07T12:10:49;8.18;;;5.32;;
26963;SDS011;14521;48.148;-1.656;2023-05-07T12:14:11;7.97;;;4.95;;
26963;SDS011;14521;48.148;-1.656;2023-05-07T12:17:34;8.25;;;5.40;;
26963;SDS011;14521;48.148;-1.656;2023-05-07T12:20:56;8.52;;;5.72;;
26963;SDS011;14521;48.148;-1.656;2023-05-07T12:24:20;5.85;;;5.30;;
26963;SDS011;14521;48.148;-1.656;2023-05-07T12:27:43;6.90;;;4.65;;
26963;SDS011;14521;48.148;-1.656;2023-05-07T12:31:05;8.75;;;5.28;;
26963;SDS011;14521;48.148;-1.656;2023-05-07T12:34:28;5.40;;;4.80;;
26963;SDS011;14521;48.148;-1.656;2023-05-07T12:37:57;5.85;;;5.00;;
26963;SDS011;14521;48.148;-1.656;2023-05-07T12:41:21;8.30;;;5.25;;
26963;SDS011;14521;48.148;-1.656;2023-05-07T12:44:48;5.05;;;4.65;;
26963;SDS011;14521;48.148;-1.656;2023-05-07T12:48:10;8.80;;;4.95;;
26963;SDS011;14521;48.148;-1.656;2023-05-07T12:51:34;4.40;;;4.00;;
26963;SDS011;14521;48.148;-1.656;2023-05-07T12:54:57;9.73;;;3.87;;
26963;SDS011;14521;48.148;-1.656;2023-05-07T12:58:30;4.25;;;3.85;;
26963;SDS011;14521;48.148;-1.656;2023-05-07T13:01:56;5.07;;;4.40;;
26963;SDS011;14521;48.148;-1.656;2023-05-07T13:05:18;4.32;;;3.70;;
26963;SDS011;14521;48.148;-1.656;2023-05-07T13:08:41;6.20;;;3.35;;
26963;SDS011;14521;48.148;-1.656;2023-05-07T13:12:06;8.25;;;3.55;;
26963;SDS011;14521;48.148;-1.656;2023-05-07T13:15:29;5.40;;;3.63;;
26963;SDS011;14521;48.148;-1.656;2023-05-07T13:18:51;4.85;;;3.35;;
26963;SDS011;14521;48.148;-1.656;2023-05-07T13:22:13;4.07;;;3.30;;
26963;SDS011;14521;48.148;-1.656;2023-05-07T13:25:35;3.13;;;2.90;;
26963;SDS011;14521;48.148;-1.656;2023-05-07T13:28:59;6.30;;;3.80;;
26963;SDS011;14521;48.148;-1.656;2023-05-07T13:32:22;4.60;;;3.05;;
26963;SDS011;14521;48.148;-1.656;2023-05-07T13:35:46;2.92;;;2.50;;
26963;SDS011;14521;48.148;-1.656;2023-05-07T13:39:08;5.00;;;3.25;;
26963;SDS011;14521;48.148;-1.656;2023-05-07T13:42:30;5.05;;;2.55;;
26963;SDS011;14521;48.148;-1.656;2023-05-07T13:45:52;3.47;;;3.00;;
26963;SDS011;14521;48.148;-1.656;2023-05-07T13:49:15;3.33;;;3.03;;
26963;SDS011;14521;48.148;-1.656;2023-05-07T13:52:37;8.35;;;2.78;;
26963;SDS011;14521;48.148;-1.656;2023-05-07T13:56:02;3.90;;;2.83;;
26963;SDS011;14521;48.148;-1.656;2023-05-07T13:59:26;3.03;;;2.77;;
26963;SDS011;14521;48.148;-1.656;2023-05-07T14:02:48;2.50;;;2.30;;
26963;SDS011;14521;48.148;-1.656;2023-05-07T14:06:10;4.03;;;2.33;;
26963;SDS011;14521;48.148;-1.656;2023-05-07T14:09:33;6.50;;;2.55;;
26963;SDS011;14521;48.148;-1.656;2023-05-07T14:12:55;3.63;;;2.40;;
26963;SDS011;14521;48.148;-1.656;2023-05-07T14:16:18;2.42;;;2.05;;
26963;SDS011;14521;48.148;-1.656;2023-05-07T14:19:40;3.20;;;2.15;;
26963;SDS011;14521;48.148;-1.656;2023-05-07T14:23:02;4.55;;;2.20;;
26963;SDS011;14521;48.148;-1.656;2023-05-07T14:26:25;2.60;;;2.22;;
26963;SDS011;14521;48.148;-1.656;2023-05-07T14:29:48;2.42;;;2.03;;
26963;SDS011;14521;48.148;-1.656;2023-05-07T14:33:12;2.25;;;2.00;;
26963;SDS011;14521;48.148;-1.656;2023-05-07T14:36:35;2.05;;;1.85;;
26963;SDS011;14521;48.148;-1.656;2023-05-07T14:39:57;2.22;;;2.03;;
26963;SDS011;14521;48.148;-1.656;2023-05-07T14:43:19;2.13;;;1.98;;
26963;SDS011;14521;48.148;-1.656;2023-05-07T14:46:43;3.90;;;1.88;;
26963;SDS011;14521;48.148;-1.656;2023-05-07T14:50:05;2.13;;;1.88;;
26963;SDS011;14521;48.148;-1.656;2023-05-07T14:53:28;3.13;;;2.03;;
26963;SDS011;14521;48.148;-1.656;2023-05-07T14:56:50;3.13;;;1.60;;
26963;SDS011;14521;48.148;-1.656;2023-05-07T15:00:13;2.13;;;1.67;;
26963;SDS011;14521;48.148;-1.656;2023-05-07T15:03:35;4.88;;;1.58;;
26963;SDS011;14521;48.148;-1.656;2023-05-07T15:06:58;1.58;;;1.48;;
26963;SDS011;14521;48.148;-1.656;2023-05-07T15:10:20;3.00;;;1.67;;
26963;SDS011;14521;48.148;-1.656;2023-05-07T15:13:42;2.00;;;1.60;;
26963;SDS011;14521;48.148;-1.656;2023-05-07T15:17:05;2.20;;;1.80;;
26963;SDS011;14521;48.148;-1.656;2023-05-07T15:20:27;1.70;;;1.52;;
26963;SDS011;14521;48.148;-1.656;2023-05-07T15:23:50;2.28;;;1.65;;
26963;SDS011;14521;48.148;-1.656;2023-05-07T15:27:12;2.83;;;1.98;;
26963;SDS011;14521;48.148;-1.656;2023-05-07T15:30:34;1.85;;;1.58;;
26963;SDS011;14521;48.148;-1.656;2023-05-07T15:33:57;1.50;;;1.40;;
26963;SDS011;14521;48.148;-1.656;2023-05-07T15:37:19;2.67;;;1.40;;
26963;SDS011;14521;48.148;-1.656;2023-05-07T15:40:41;3.70;;;1.85;;
26963;SDS011;14521;48.148;-1.656;2023-05-07T15:44:03;2.10;;;1.27;;
26963;SDS011;14521;48.148;-1.656;2023-05-07T15:47:26;2.05;;;1.20;;
26963;SDS011;14521;48.148;-1.656;2023-05-07T15:50:48;2.67;;;1.40;;
26963;SDS011;14521;48.148;-1.656;2023-05-07T15:54:10;1.77;;;1.30;;
26963;SDS011;14521;48.148;-1.656;2023-05-07T15:57:33;2.70;;;1.30;;
26963;SDS011;14521;48.148;-1.656;2023-05-07T16:00:55;2.88;;;1.15;;
26963;SDS011;14521;48.148;-1.656;2023-05-07T16:04:17;3.22;;;0.93;;
26963;SDS011;14521;48.148;-1.656;2023-05-07T16:07:39;1.20;;;1.00;;
26963;SDS011;14521;48.148;-1.656;2023-05-07T16:11:05;5.97;;;1.35;;
26963;SDS011;14521;48.148;-1.656;2023-05-07T16:14:27;1.88;;;1.40;;
26963;SDS011;14521;48.148;-1.656;2023-05-07T16:17:49;3.08;;;1.30;;
26963;SDS011;14521;48.148;-1.656;2023-05-07T16:21:12;1.60;;;1.40;;
26963;SDS011;14521;48.148;-1.656;2023-05-07T16:24:35;1.30;;;1.15;;
26963;SDS011;14521;48.148;-1.656;2023-05-07T16:27:57;2.42;;;1.33;;
26963;SDS011;14521;48.148;-1.656;2023-05-07T16:31:19;5.05;;;1.35;;
26963;SDS011;14521;48.148;-1.656;2023-05-07T16:34:42;1.45;;;1.15;;
26963;SDS011;14521;48.148;-1.656;2023-05-07T16:38:04;1.20;;;1.10;;
26963;SDS011;14521;48.148;-1.656;2023-05-07T16:41:31;1.52;;;1.15;;
26963;SDS011;14521;48.148;-1.656;2023-05-07T16:44:54;1.92;;;1.13;;
26963;SDS011;14521;48.148;-1.656;2023-05-07T16:48:16;1.63;;;1.08;;
26963;SDS011;14521;48.148;-1.656;2023-05-07T16:51:41;1.15;;;0.90;;
26963;SDS011;14521;48.148;-1.656;2023-05-07T16:55:05;2.08;;;1.05;;
26963;SDS011;14521;48.148;-1.656;2023-05-07T16:58:27;1.75;;;1.10;;
26963;SDS011;14521;48.148;-1.656;2023-05-07T17:01:50;1.70;;;1.17;;
26963;SDS011;14521;48.148;-1.656;2023-05-07T17:05:13;1.77;;;1.10;;
26963;SDS011;14521;48.148;-1.656;2023-05-07T17:08:36;1.25;;;1.10;;
26963;SDS011;14521;48.148;-1.656;2023-05-07T17:11:59;1.02;;;1.00;;
26963;SDS011;14521;48.148;-1.656;2023-05-07T17:15:22;1.70;;;1.20;;
26963;SDS011;14521;48.148;-1.656;2023-05-07T17:18:44;2.72;;;1.10;;
26963;SDS011;14521;48.148;-1.656;2023-05-07T17:22:06;1.02;;;1.02;;
26963;SDS011;14521;48.148;-1.656;2023-05-07T17:25:30;2.15;;;1.30;;
26963;SDS011;14521;48.148;-1.656;2023-05-07T17:28:53;4.05;;;1.20;;
26963;SDS011;14521;48.148;-1.656;2023-05-07T17:32:15;2.38;;;1.10;;
26963;SDS011;14521;48.148;-1.656;2023-05-07T17:35:38;10.40;;;1.33;;
26963;SDS011;14521;48.148;-1.656;2023-05-07T17:39:00;4.07;;;1.63;;
26963;SDS011;14521;48.148;-1.656;2023-05-07T17:42:22;2.72;;;1.00;;
26963;SDS011;14521;48.148;-1.656;2023-05-07T17:45:45;5.10;;;1.27;;
26963;SDS011;14521;48.148;-1.656;2023-05-07T17:49:08;7.43;;;1.38;;
26963;SDS011;14521;48.148;-1.656;2023-05-07T17:52:31;5.75;;;1.30;;
26963;SDS011;14521;48.148;-1.656;2023-05-07T17:55:53;4.75;;;1.25;;
26963;SDS011;14521;48.148;-1.656;2023-05-07T17:59:15;4.82;;;1.20;;
26963;SDS011;14521;48.148;-1.656;2023-05-07T18:02:38;1.77;;;1.33;;
26963;SDS011;14521;48.148;-1.656;2023-05-07T18:06:01;4.20;;;1.35;;
26963;SDS011;14521;48.148;-1.656;2023-05-07T18:09:24;3.70;;;1.40;;
26963;SDS011;14521;48.148;-1.656;2023-05-07T18:12:46;5.80;;;1.38;;
26963;SDS011;14521;48.148;-1.656;2023-05-07T18:16:08;12.25;;;1.52;;
26963;SDS011;14521;48.148;-1.656;2023-05-07T18:19:31;5.13;;;2.10;;
26963;SDS011;14521;48.148;-1.656;2023-05-07T18:22:53;5.15;;;1.83;;
26963;SDS011;14521;48.148;-1.656;2023-05-07T18:26:15;7.03;;;1.55;;
26963;SDS011;14521;48.148;-1.656;2023-05-07T18:29:38;5.07;;;1.48;;
26963;SDS011;14521;48.148;-1.656;2023-05-07T18:33:01;3.47;;;1.23;;
26963;SDS011;14521;48.148;-1.656;2023-05-07T18:36:23;4.63;;;1.05;;
26963;SDS011;14521;48.148;-1.656;2023-05-07T18:39:46;6.70;;;1.40;;
26963;SDS011;14521;48.148;-1.656;2023-05-07T18:43:08;4.22;;;1.98;;
26963;SDS011;14521;48.148;-1.656;2023-05-07T18:46:31;9.02;;;1.95;;
26963;SDS011;14521;48.148;-1.656;2023-05-07T18:49:53;5.70;;;2.13;;
26963;SDS011;14521;48.148;-1.656;2023-05-07T18:53:16;14.48;;;2.40;;
26963;SDS011;14521;48.148;-1.656;2023-05-07T18:56:39;6.53;;;2.20;;
26963;SDS011;14521;48.148;-1.656;2023-05-07T19:00:02;11.85;;;2.22;;
26963;SDS011;14521;48.148;-1.656;2023-05-07T19:06:50;7.32;;;1.85;;
26963;SDS011;14521;48.148;-1.656;2023-05-07T19:10:13;5.97;;;2.03;;
26963;SDS011;14521;48.148;-1.656;2023-05-07T19:13:35;6.95;;;1.90;;
26963;SDS011;14521;48.148;-1.656;2023-05-07T19:16:58;5.88;;;1.65;;
26963;SDS011;14521;48.148;-1.656;2023-05-07T19:20:20;10.05;;;1.98;;
26963;SDS011;14521;48.148;-1.656;2023-05-07T19:23:43;7.13;;;1.33;;
26963;SDS011;14521;48.148;-1.656;2023-05-07T19:27:06;8.40;;;1.52;;
26963;SDS011;14521;48.148;-1.656;2023-05-07T19:33:53;4.55;;;1.38;;
26963;SDS011;14521;48.148;-1.656;2023-05-07T19:37:16;3.97;;;1.40;;
26963;SDS011;14521;48.148;-1.656;2023-05-07T19:40:38;4.50;;;1.50;;
26963;SDS011;14521;48.148;-1.656;2023-05-07T19:44:01;11.30;;;1.60;;
26963;SDS011;14521;48.148;-1.656;2023-05-07T19:47:23;4.57;;;1.55;;
26963;SDS011;14521;48.148;-1.656;2023-05-07T19:50:46;4.30;;;1.33;;
26963;SDS011;14521;48.148;-1.656;2023-05-07T19:54:10;6.25;;;1.33;;
26963;SDS011;14521;48.148;-1.656;2023-05-07T19:57:32;5.43;;;1.50;;
26963;SDS011;14521;48.148;-1.656;2023-05-07T20:00:55;7.68;;;1.40;;
26963;SDS011;14521;48.148;-1.656;2023-05-07T20:04:17;4.00;;;1.40;;
26963;SDS011;14521;48.148;-1.656;2023-05-07T20:07:39;2.40;;;1.42;;
26963;SDS011;14521;48.148;-1.656;2023-05-07T20:11:02;3.70;;;1.40;;
26963;SDS011;14521;48.148;-1.656;2023-05-07T20:14:25;4.85;;;1.10;;
26963;SDS011;14521;48.148;-1.656;2023-05-07T20:17:48;5.63;;;1.50;;
26963;SDS011;14521;48.148;-1.656;2023-05-07T20:21:10;3.95;;;1.35;;
26963;SDS011;14521;48.148;-1.656;2023-05-07T20:24:36;3.92;;;1.58;;
26963;SDS011;14521;48.148;-1.656;2023-05-07T20:27:59;3.25;;;1.13;;
26963;SDS011;14521;48.148;-1.656;2023-05-07T20:31:22;7.07;;;1.52;;
26963;SDS011;14521;48.148;-1.656;2023-05-07T20:34:44;3.20;;;1.10;;